createdAt,value
2018-05-25T00:01:58.977Z,19.30
2018-05-25T00:04:26.448Z,19.30
2018-05-25T00:06:53.929Z,19.30
2018-05-25T00:09:22.217Z,19.20
2018-05-25T00:11:49.700Z,19.20
2018-05-25T00:14:17.196Z,19.30
2018-05-25T00:16:44.657Z,19.30
2018-05-25T00:19:12.145Z,19.30
2018-05-25T00:21:39.632Z,19.30
2018-05-25T00:24:07.118Z,19.30
2018-05-25T00:26:34.600Z,19.30
2018-05-25T00:29:02.864Z,19.30
2018-05-25T00:31:30.332Z,19.30
2018-05-25T00:33:57.796Z,19.30
2018-05-25T00:36:26.047Z,19.20
2018-05-25T00:38:53.532Z,19.20
2018-05-25T00:41:21.784Z,19.20
2018-05-25T00:43:49.285Z,19.20
2018-05-25T00:46:16.764Z,19.20
2018-05-25T00:48:44.237Z,19.20
2018-05-25T00:51:11.731Z,19.20
2018-05-25T00:53:39.204Z,19.20
2018-05-25T00:56:06.708Z,19.20
2018-05-25T00:58:34.172Z,19.30
2018-05-25T01:01:01.706Z,19.20
2018-05-25T01:03:29.163Z,19.20
2018-05-25T01:05:56.625Z,19.20
2018-05-25T01:08:24.121Z,19.20
2018-05-25T01:10:51.588Z,19.20
2018-05-25T01:13:19.060Z,19.20
2018-05-25T01:15:46.544Z,19.20
2018-05-25T01:18:14.023Z,19.20
2018-05-25T01:20:41.508Z,19.20
2018-05-25T01:23:08.984Z,19.10
2018-05-25T01:25:36.474Z,19.10
2018-05-25T01:28:04.724Z,19.00
2018-05-25T01:30:32.211Z,19.00
2018-05-25T01:33:00.469Z,19.00
2018-05-25T01:35:28.712Z,18.90
2018-05-25T01:37:56.208Z,18.90
2018-05-25T01:40:24.448Z,18.80
2018-05-25T01:42:51.940Z,18.80
2018-05-25T01:45:20.164Z,18.70
2018-05-25T01:47:47.653Z,18.70
2018-05-25T01:50:15.113Z,18.70
2018-05-25T01:52:42.593Z,18.60
2018-05-25T01:55:10.825Z,18.60
2018-05-25T01:57:38.323Z,18.60
2018-05-25T02:00:05.796Z,18.60
2018-05-25T02:02:34.053Z,18.50
2018-05-25T02:05:01.520Z,18.50
2018-05-25T02:07:29.001Z,18.50
2018-05-25T02:09:57.248Z,18.50
2018-05-25T02:12:24.745Z,18.50
2018-05-25T02:14:52.224Z,18.50
2018-05-25T02:17:19.681Z,18.40
2018-05-25T02:19:47.164Z,18.40
2018-05-25T02:22:14.646Z,18.40
2018-05-25T02:24:42.147Z,18.40
2018-05-25T02:27:09.625Z,18.40
2018-05-25T02:29:37.132Z,18.40
2018-05-25T02:32:05.391Z,18.30
2018-05-25T02:34:32.880Z,18.30
2018-05-25T02:37:00.340Z,18.30
2018-05-25T02:39:28.593Z,18.30
2018-05-25T02:41:56.073Z,18.20
2018-05-25T02:44:24.323Z,18.20
2018-05-25T02:46:51.820Z,18.20
2018-05-25T02:49:19.284Z,18.20
2018-05-25T02:51:46.769Z,18.20
2018-05-25T02:54:14.267Z,18.10
2018-05-25T02:56:41.720Z,18.10
2018-05-25T02:59:09.227Z,18.10
2018-05-25T03:01:36.703Z,18.10
2018-05-25T03:04:04.186Z,18.00
2018-05-25T03:06:31.674Z,18.00
2018-05-25T03:08:59.924Z,18.00
2018-05-25T03:11:27.404Z,18.00
2018-05-25T03:13:55.652Z,18.00
2018-05-25T03:16:23.157Z,17.90
2018-05-25T03:18:50.867Z,18.00
2018-05-25T03:21:18.356Z,17.90
2018-05-25T03:23:45.852Z,17.90
2018-05-25T03:26:13.430Z,17.90
2018-05-25T03:28:40.931Z,18.00
2018-05-25T03:31:09.169Z,18.00
2018-05-25T03:33:36.664Z,18.00
2018-05-25T03:36:04.940Z,18.00
2018-05-25T03:38:33.188Z,18.00
2018-05-25T03:41:00.684Z,17.90
2018-05-25T03:43:28.187Z,18.00
2018-05-25T03:45:55.664Z,18.00
2018-05-25T03:48:23.160Z,18.00
2018-05-25T03:50:51.453Z,18.00
2018-05-25T03:53:18.945Z,17.90
2018-05-25T03:55:46.413Z,18.00
2018-05-25T03:58:13.889Z,18.00
2018-05-25T04:00:53.267Z,18.00
2018-05-25T04:03:20.753Z,18.10
2018-05-25T04:05:48.218Z,18.10
2018-05-25T04:08:15.716Z,18.20
2018-05-25T04:10:43.181Z,18.20
2018-05-25T04:13:11.436Z,18.20
2018-05-25T04:15:38.907Z,18.20
2018-05-25T04:18:06.413Z,18.20
2018-05-25T04:20:33.978Z,18.30
2018-05-25T04:23:01.468Z,18.20
2018-05-25T04:25:28.966Z,18.30
2018-05-25T04:27:57.208Z,18.40
2018-05-25T04:30:24.701Z,18.30
2018-05-25T04:32:52.194Z,18.40
2018-05-25T04:35:19.680Z,18.40
2018-05-25T04:37:47.170Z,18.40
2018-05-25T04:40:14.647Z,18.40
2018-05-25T04:42:42.157Z,18.50
2018-05-25T04:45:09.779Z,18.50
2018-05-25T04:47:37.251Z,18.60
2018-05-25T04:50:04.848Z,18.60
2018-05-25T04:52:32.363Z,18.60
2018-05-25T04:54:59.854Z,18.70
2018-05-25T04:57:27.360Z,18.70
2018-05-25T04:59:54.844Z,18.70
2018-05-25T05:02:22.363Z,18.70
2018-05-25T05:04:49.881Z,18.70
2018-05-25T05:07:17.354Z,18.70
2018-05-25T05:09:44.841Z,18.70
2018-05-25T05:12:13.072Z,18.70
2018-05-25T05:14:40.537Z,18.70
2018-05-25T05:17:08.030Z,18.70
2018-05-25T05:19:36.330Z,18.80
2018-05-25T05:22:03.804Z,18.70
2018-05-25T05:24:31.279Z,18.70
2018-05-25T05:26:58.761Z,18.70
2018-05-25T05:29:26.872Z,18.80
2018-05-25T05:31:54.587Z,18.80
2018-05-25T05:34:22.935Z,18.80
2018-05-25T05:36:50.501Z,18.80
2018-05-25T05:39:17.999Z,18.80
2018-05-25T05:41:45.510Z,18.70
2018-05-25T05:44:12.999Z,18.70
2018-05-25T05:46:40.634Z,18.70
2018-05-25T05:49:08.190Z,18.70
2018-05-25T05:51:35.668Z,18.70
2018-05-25T05:54:03.146Z,18.70
2018-05-25T05:56:30.642Z,18.80
2018-05-25T05:58:58.132Z,18.80
2018-05-25T06:01:25.620Z,18.90
2018-05-25T06:03:53.086Z,19.00
2018-05-25T06:06:20.603Z,19.10
2018-05-25T06:08:48.067Z,19.20
2018-05-25T06:11:15.564Z,19.20
2018-05-25T06:13:43.053Z,19.30
2018-05-25T06:16:10.552Z,19.30
2018-05-25T06:18:38.017Z,19.40
2018-05-25T06:21:05.479Z,19.50
2018-05-25T06:23:32.956Z,19.50
2018-05-25T06:26:00.416Z,19.60
2018-05-25T06:28:27.908Z,19.70
2018-05-25T06:30:56.136Z,19.80
2018-05-25T06:33:23.621Z,19.80
2018-05-25T06:35:51.088Z,19.90
2018-05-25T06:38:19.336Z,20.00
2018-05-25T06:40:46.830Z,20.00
2018-05-25T06:43:15.089Z,20.30
2018-05-25T06:45:42.589Z,20.20
2018-05-25T06:48:10.057Z,20.40
2018-05-25T06:50:37.560Z,20.50
2018-05-25T06:53:05.044Z,20.60
2018-05-25T06:55:32.513Z,20.70
2018-05-25T06:58:00.003Z,20.70
2018-05-25T07:00:27.486Z,20.80
2018-05-25T07:02:54.959Z,20.90
2018-05-25T07:05:22.477Z,21.00
2018-05-25T07:07:49.944Z,21.10
2018-05-25T07:10:17.404Z,21.20
2018-05-25T07:12:44.890Z,21.20
2018-05-25T07:15:12.373Z,21.30
2018-05-25T07:17:39.868Z,21.40
2018-05-25T07:20:07.358Z,21.40
2018-05-25T07:22:34.840Z,21.40
2018-05-25T07:25:03.073Z,21.50
2018-05-25T07:27:30.572Z,21.50
2018-05-25T07:29:58.069Z,21.60
2018-05-25T07:32:25.535Z,21.70
2018-05-25T07:34:52.996Z,21.80
2018-05-25T07:37:20.489Z,21.80
2018-05-25T07:39:47.963Z,21.90
2018-05-25T07:42:15.448Z,21.90
2018-05-25T07:44:42.910Z,22.10
2018-05-25T07:47:10.402Z,22.20
2018-05-25T07:49:37.865Z,22.30
2018-05-25T07:52:05.348Z,22.40
2018-05-25T07:54:32.813Z,22.50
2018-05-25T07:57:00.292Z,22.40
2018-05-25T07:59:27.824Z,22.50
2018-05-25T08:01:55.288Z,22.70
2018-05-25T08:04:22.840Z,22.80
2018-05-25T08:06:50.305Z,23.00
2018-05-25T08:09:17.803Z,23.30
2018-05-25T08:11:45.292Z,23.50
2018-05-25T08:14:12.754Z,23.70
2018-05-25T08:16:40.232Z,23.80
2018-05-25T08:19:07.717Z,23.90
2018-05-25T08:21:35.953Z,24.10
2018-05-25T08:24:03.433Z,24.10
2018-05-25T08:26:30.908Z,24.20
2018-05-25T08:28:58.373Z,24.30
2018-05-25T08:31:25.856Z,24.40
2018-05-25T08:33:53.349Z,24.50
2018-05-25T08:36:20.828Z,24.50
2018-05-25T08:38:48.328Z,24.60
2018-05-25T08:41:15.794Z,24.50
2018-05-25T08:43:43.265Z,24.60
2018-05-25T08:46:10.744Z,24.50
2018-05-25T08:48:38.243Z,24.50
2018-05-25T08:51:05.700Z,24.40
2018-05-25T08:53:33.929Z,24.20
2018-05-25T08:56:01.472Z,24.10
2018-05-25T08:58:29.663Z,24.00
2018-05-25T09:00:57.154Z,24.00
2018-05-25T09:03:24.605Z,24.00
2018-05-25T09:05:52.098Z,23.90
2018-05-25T09:08:19.580Z,23.80
2018-05-25T09:10:47.087Z,23.80
2018-05-25T09:13:15.326Z,23.70
2018-05-25T09:15:42.816Z,23.70
2018-05-25T09:18:10.276Z,23.60
2018-05-25T09:20:38.528Z,23.70
2018-05-25T09:23:06.001Z,23.70
2018-05-25T09:25:33.488Z,23.70
2018-05-25T09:28:01.737Z,23.90
2018-05-25T09:30:29.243Z,23.90
2018-05-25T09:32:56.697Z,24.10
2018-05-25T09:35:24.175Z,24.10
2018-05-25T09:37:51.664Z,24.30
2018-05-25T09:40:19.153Z,24.60
2018-05-25T09:42:47.372Z,25.00
2018-05-25T09:45:14.861Z,24.90
2018-05-25T09:47:42.321Z,25.10
2018-05-25T09:50:09.796Z,25.20
2018-05-25T09:52:38.045Z,25.50
2018-05-25T09:55:05.536Z,25.50
2018-05-25T09:57:33.765Z,25.80
2018-05-25T10:00:01.298Z,25.80
2018-05-25T10:02:28.796Z,26.00
2018-05-25T10:04:56.276Z,26.30
2018-05-25T10:07:23.740Z,26.60
2018-05-25T10:09:51.201Z,26.80
2018-05-25T10:12:18.693Z,27.10
2018-05-25T10:14:46.150Z,27.50
2018-05-25T10:17:13.633Z,27.60
2018-05-25T10:19:41.885Z,27.40
2018-05-25T10:22:09.359Z,27.40
2018-05-25T10:24:36.849Z,27.40
2018-05-25T10:27:04.311Z,27.60
2018-05-25T10:29:31.847Z,27.70
2018-05-25T10:31:59.312Z,27.90
2018-05-25T10:34:26.768Z,28.00
2018-05-25T10:36:54.253Z,28.00
2018-05-25T10:39:21.762Z,28.00
2018-05-25T10:41:49.245Z,27.90
2018-05-25T10:44:16.699Z,27.90
2018-05-25T10:46:44.185Z,27.90
2018-05-25T10:49:11.669Z,27.90
2018-05-25T10:51:39.916Z,28.00
2018-05-25T10:54:07.380Z,28.00
2018-05-25T10:56:35.671Z,27.90
2018-05-25T10:59:03.957Z,28.00
2018-05-25T11:01:32.185Z,28.20
2018-05-25T11:03:59.663Z,28.20
2018-05-25T11:06:27.149Z,28.40
2018-05-25T11:08:55.395Z,28.40
2018-05-25T11:11:22.884Z,28.40
2018-05-25T11:13:51.116Z,28.50
2018-05-25T11:16:18.639Z,28.50
2018-05-25T11:18:46.122Z,28.60
2018-05-25T11:21:13.604Z,28.60
2018-05-25T11:23:41.069Z,28.60
2018-05-25T11:26:08.553Z,28.80
2018-05-25T11:28:36.016Z,29.10
2018-05-25T11:31:03.524Z,29.40
2018-05-25T11:33:30.997Z,29.60
2018-05-25T11:35:58.477Z,29.70
2018-05-25T11:38:26.704Z,29.80
2018-05-25T11:40:54.201Z,29.80
2018-05-25T11:43:21.814Z,29.70
2018-05-25T11:45:49.308Z,29.70
2018-05-25T11:48:16.788Z,29.70
2018-05-25T11:50:45.108Z,29.80
2018-05-25T11:53:12.591Z,29.70
2018-05-25T11:55:40.059Z,29.90
2018-05-25T11:58:07.564Z,30.10
2018-05-25T12:00:35.023Z,30.20
2018-05-25T12:03:02.536Z,30.20
2018-05-25T12:05:30.015Z,30.10
2018-05-25T12:07:58.245Z,30.00
2018-05-25T12:10:25.727Z,30.00
2018-05-25T12:12:53.229Z,30.00
2018-05-25T12:15:21.500Z,29.90
2018-05-25T12:17:49.736Z,30.10
2018-05-25T12:20:17.252Z,30.10
2018-05-25T12:22:44.741Z,30.20
2018-05-25T12:25:12.239Z,30.50
2018-05-25T12:27:39.696Z,30.70
2018-05-25T12:30:07.162Z,30.80
2018-05-25T12:32:35.409Z,30.90
2018-05-25T12:35:02.912Z,30.90
2018-05-25T12:37:30.376Z,30.70
2018-05-25T12:39:57.865Z,30.50
2018-05-25T12:42:25.352Z,30.40
2018-05-25T12:45:04.460Z,30.60
2018-05-25T12:47:31.945Z,31.10
2018-05-25T12:49:59.420Z,31.40
2018-05-25T12:52:27.670Z,31.40
2018-05-25T12:54:55.141Z,31.40
2018-05-25T12:57:22.665Z,31.30
2018-05-25T12:59:50.134Z,31.30
2018-05-25T13:02:17.633Z,31.50
2018-05-25T13:04:45.860Z,31.80
2018-05-25T13:07:13.343Z,31.70
2018-05-25T13:09:40.804Z,32.00
2018-05-25T13:12:08.288Z,32.20
2018-05-25T13:14:35.780Z,32.40
2018-05-25T13:17:03.244Z,32.40
2018-05-25T13:19:30.793Z,32.30
2018-05-25T13:21:58.265Z,32.20
2018-05-25T13:24:25.764Z,32.10
2018-05-25T13:26:53.258Z,32.00
2018-05-25T13:29:20.721Z,31.70
2018-05-25T13:31:48.216Z,31.60
2018-05-25T13:34:15.684Z,31.40
2018-05-25T13:36:43.161Z,31.30
2018-05-25T13:39:10.653Z,31.40
2018-05-25T13:41:38.137Z,31.60
2018-05-25T13:44:05.616Z,31.80
2018-05-25T13:46:33.105Z,32.80
2018-05-25T13:49:01.354Z,34.90
2018-05-25T13:51:28.853Z,34.80
2018-05-25T13:53:56.325Z,35.40
2018-05-25T13:56:23.830Z,36.10
2018-05-25T13:58:51.289Z,36.40
2018-05-25T14:01:19.527Z,36.70
2018-05-25T14:03:47.034Z,36.70
2018-05-25T14:06:14.515Z,37.00
2018-05-25T14:08:42.747Z,37.00
2018-05-25T14:11:10.235Z,36.90
2018-05-25T14:13:38.403Z,36.30
2018-05-25T14:16:05.914Z,36.40
2018-05-25T14:18:33.372Z,37.80
2018-05-25T14:21:00.849Z,40.10
2018-05-25T14:23:28.331Z,42.10
2018-05-25T14:25:55.831Z,43.30
2018-05-25T14:28:24.053Z,46.00
2018-05-25T14:30:51.528Z,45.90
2018-05-25T14:33:19.019Z,47.00
2018-05-25T14:35:46.511Z,47.90
2018-05-25T14:38:13.964Z,48.40
2018-05-25T14:40:41.449Z,48.50
2018-05-25T14:43:08.911Z,49.00
2018-05-25T14:45:36.372Z,49.70
2018-05-25T14:48:03.848Z,50.30
2018-05-25T14:50:31.325Z,50.60
2018-05-25T14:52:59.556Z,47.60
2018-05-25T14:55:27.036Z,47.50
2018-05-25T14:57:54.519Z,47.10
2018-05-25T15:00:21.975Z,47.30
2018-05-25T15:02:49.469Z,48.00
2018-05-25T15:05:16.962Z,48.60
2018-05-25T15:07:44.413Z,49.10
2018-05-25T15:10:11.896Z,49.50
2018-05-25T15:12:39.349Z,49.50
2018-05-25T15:15:06.818Z,49.70
2018-05-25T15:17:34.267Z,50.00
2018-05-25T15:20:01.813Z,49.80
2018-05-25T15:22:30.065Z,46.20
2018-05-25T15:24:57.516Z,46.10
2018-05-25T15:27:25.005Z,43.60
2018-05-25T15:29:52.461Z,41.50
2018-05-25T15:32:19.957Z,39.80
2018-05-25T15:34:48.185Z,39.50
2018-05-25T15:37:15.644Z,39.50
2018-05-25T15:39:43.222Z,40.40
2018-05-25T15:42:10.688Z,40.80
2018-05-25T15:44:38.163Z,40.50
2018-05-25T15:47:06.392Z,39.20
2018-05-25T15:49:33.872Z,39.10
2018-05-25T15:52:01.383Z,38.40
2018-05-25T15:54:28.845Z,37.60
2018-05-25T15:56:56.409Z,37.30
2018-05-25T15:59:23.908Z,36.90
2018-05-25T16:01:51.360Z,36.60
2018-05-25T16:04:18.837Z,36.40
2018-05-25T16:06:46.299Z,36.00
2018-05-25T16:09:13.806Z,35.60
2018-05-25T16:11:41.273Z,35.20
2018-05-25T16:14:08.750Z,35.00
2018-05-25T16:16:36.248Z,34.90
2018-05-25T16:19:04.469Z,34.30
2018-05-25T16:21:31.929Z,34.20
2018-05-25T16:23:59.581Z,34.10
2018-05-25T16:26:27.047Z,34.00
2018-05-25T16:28:54.612Z,33.80
2018-05-25T16:31:22.800Z,33.80
2018-05-25T16:33:50.268Z,33.70
2018-05-25T16:36:17.760Z,33.70
2018-05-25T16:38:46.020Z,33.60
2018-05-25T16:41:13.492Z,33.60
2018-05-25T16:43:41.740Z,33.30
2018-05-25T16:46:09.276Z,33.20
2018-05-25T16:48:37.459Z,33.00
2018-05-25T16:51:04.928Z,32.90
2018-05-25T16:53:32.399Z,32.80
2018-05-25T16:55:59.911Z,32.70
2018-05-25T16:58:27.613Z,32.60
2018-05-25T17:00:55.390Z,32.70
2018-05-25T17:03:22.998Z,32.60
2018-05-25T17:05:50.590Z,32.30
2018-05-25T17:08:18.112Z,32.10
2018-05-25T17:10:45.588Z,31.80
2018-05-25T17:13:13.257Z,31.50
2018-05-25T17:15:40.994Z,31.30
2018-05-25T17:18:08.688Z,31.10
2018-05-25T17:20:36.175Z,31.00
2018-05-25T17:23:03.913Z,30.90
2018-05-25T17:25:31.582Z,31.10
2018-05-25T17:27:59.135Z,31.10
2018-05-25T17:30:26.825Z,31.30
2018-05-25T17:32:54.417Z,31.30
2018-05-25T17:35:22.817Z,31.10
2018-05-25T17:37:50.594Z,30.90
2018-05-25T17:40:18.098Z,30.70
2018-05-25T17:42:45.854Z,30.80
2018-05-25T17:45:14.135Z,30.80
2018-05-25T17:47:41.628Z,30.70
2018-05-25T17:50:10.064Z,31.00
2018-05-25T17:52:38.645Z,32.10
2018-05-25T17:55:06.248Z,32.10
2018-05-25T17:57:33.812Z,33.20
2018-05-25T18:00:01.364Z,34.00
2018-05-25T18:02:29.821Z,34.90
2018-05-25T18:04:57.424Z,34.90
2018-05-25T18:07:24.979Z,34.20
2018-05-25T18:09:52.779Z,33.20
2018-05-25T18:12:20.247Z,32.40
2018-05-25T18:14:47.736Z,31.70
2018-05-25T18:17:15.229Z,31.20
2018-05-25T18:19:43.473Z,30.50
2018-05-25T18:22:10.964Z,30.40
2018-05-25T18:24:38.448Z,30.20
2018-05-25T18:27:05.903Z,30.00
2018-05-25T18:29:34.228Z,29.80
2018-05-25T18:32:01.809Z,29.70
2018-05-25T18:34:30.028Z,29.50
2018-05-25T18:36:57.501Z,29.50
2018-05-25T18:39:24.990Z,29.30
2018-05-25T18:41:52.450Z,29.20
2018-05-25T18:44:20.714Z,28.90
2018-05-25T18:46:48.194Z,28.90
2018-05-25T18:49:16.464Z,28.60
2018-05-25T18:51:44.708Z,28.40
2018-05-25T18:54:23.955Z,28.40
2018-05-25T18:56:51.543Z,28.30
2018-05-25T18:59:20.853Z,28.00
2018-05-25T19:01:49.102Z,27.90
2018-05-25T19:04:16.552Z,27.90
2018-05-25T19:06:44.044Z,27.70
2018-05-25T19:09:12.315Z,27.50
2018-05-25T19:11:40.732Z,27.40
2018-05-25T19:14:08.313Z,27.40
2018-05-25T19:16:35.857Z,27.30
2018-05-25T19:19:03.337Z,27.20
2018-05-25T19:21:30.928Z,27.10
2018-05-25T19:23:58.480Z,27.00
2018-05-25T19:26:25.943Z,26.90
2018-05-25T19:28:53.443Z,26.70
2018-05-25T19:31:21.060Z,26.60
2018-05-25T19:33:48.558Z,26.50
2018-05-25T19:36:16.051Z,26.40
2018-05-25T19:38:43.532Z,26.30
2018-05-25T19:41:11.028Z,26.30
2018-05-25T19:43:38.627Z,26.10
2018-05-25T19:46:06.114Z,26.10
2018-05-25T19:48:33.697Z,26.00
2018-05-25T19:51:02.006Z,25.80
2018-05-25T19:53:29.522Z,25.80
2018-05-25T19:55:57.041Z,25.70
2018-05-25T19:58:24.517Z,25.70
2018-05-25T20:00:51.995Z,25.60
2018-05-25T20:03:19.502Z,25.50
2018-05-25T20:05:46.955Z,25.40
2018-05-25T20:08:14.429Z,25.40
2018-05-25T20:10:41.911Z,25.30
2018-05-25T20:13:09.397Z,25.20
2018-05-25T20:15:36.885Z,25.20
2018-05-25T20:18:04.380Z,25.10
2018-05-25T20:20:31.915Z,25.10
2018-05-25T20:22:59.390Z,25.00
2018-05-25T20:25:26.872Z,24.90
2018-05-25T20:27:54.338Z,24.90
2018-05-25T20:30:21.816Z,24.80
2018-05-25T20:32:49.287Z,24.80
2018-05-25T20:35:16.793Z,24.70
2018-05-25T20:37:44.273Z,24.70
2018-05-25T20:40:11.851Z,24.60
2018-05-25T20:42:39.340Z,24.60
2018-05-25T20:45:06.921Z,24.50
2018-05-25T20:47:34.384Z,24.50
2018-05-25T20:50:01.927Z,24.40
2018-05-25T20:52:30.203Z,24.30
2018-05-25T20:54:57.664Z,24.30
2018-05-25T20:57:25.157Z,24.20
2018-05-25T20:59:52.615Z,24.10
2018-05-25T21:02:20.109Z,24.10
2018-05-25T21:04:47.607Z,24.10
2018-05-25T21:07:15.093Z,24.10
2018-05-25T21:09:42.580Z,24.00
2018-05-25T21:12:10.112Z,24.00
2018-05-25T21:14:37.635Z,23.90
2018-05-25T21:17:05.108Z,23.90
2018-05-25T21:19:32.570Z,23.80
2018-05-25T21:22:01.306Z,23.80
2018-05-25T21:24:28.764Z,23.70
2018-05-25T21:26:56.252Z,23.70
2018-05-25T21:29:23.740Z,23.60
2018-05-25T21:31:51.211Z,23.60
2018-05-25T21:34:18.702Z,23.50
2018-05-25T21:36:46.182Z,23.40
2018-05-25T21:39:13.635Z,23.40
2018-05-25T21:41:41.127Z,23.30
2018-05-25T21:44:08.592Z,23.20
2018-05-25T21:46:36.052Z,23.20
2018-05-25T21:49:03.721Z,23.10
2018-05-25T21:51:31.224Z,23.10
2018-05-25T21:53:58.725Z,23.00
2018-05-25T21:56:26.213Z,23.00
2018-05-25T21:58:54.464Z,22.90
2018-05-25T22:01:21.931Z,22.90
2018-05-25T22:03:49.420Z,22.90
2018-05-25T22:06:16.892Z,22.90
2018-05-25T22:08:44.380Z,22.80
2018-05-25T22:11:11.868Z,22.80
2018-05-25T22:13:39.333Z,22.70
2018-05-25T22:16:06.800Z,22.70
2018-05-25T22:18:35.048Z,22.70
2018-05-25T22:21:02.520Z,22.60
2018-05-25T22:23:30.005Z,22.60
2018-05-25T22:25:57.508Z,22.60
2018-05-25T22:28:25.004Z,22.60
2018-05-25T22:30:52.485Z,22.50
2018-05-25T22:33:19.993Z,22.50
2018-05-25T22:35:47.458Z,22.50
2018-05-25T22:38:14.935Z,22.50
2018-05-25T22:40:42.416Z,22.40
2018-05-25T22:43:22.426Z,22.40
2018-05-25T22:46:01.771Z,22.40
2018-05-25T22:48:40.985Z,22.40
2018-05-25T22:51:20.460Z,22.30
2018-05-25T22:53:53.189Z,22.30
2018-05-25T22:56:20.654Z,22.20
2018-05-25T22:58:48.145Z,22.20
2018-05-25T23:01:15.632Z,22.10
2018-05-25T23:03:43.954Z,22.10
2018-05-25T23:06:11.448Z,22.00
2018-05-25T23:08:38.937Z,22.00
2018-05-25T23:11:07.160Z,22.00
2018-05-25T23:13:34.639Z,22.00
2018-05-25T23:16:02.097Z,22.00
2018-05-25T23:18:29.629Z,21.90
2018-05-25T23:20:57.077Z,21.90
2018-05-25T23:23:24.564Z,21.90
2018-05-25T23:25:52.354Z,21.80
2018-05-25T23:28:20.604Z,21.70
2018-05-25T23:30:48.068Z,21.70
2018-05-25T23:33:15.549Z,21.70
2018-05-25T23:35:43.796Z,21.70
2018-05-25T23:38:11.259Z,21.60
2018-05-25T23:40:38.757Z,21.60
2018-05-25T23:43:06.997Z,21.60
2018-05-25T23:45:34.480Z,21.50
2018-05-25T23:48:02.841Z,21.50
2018-05-25T23:50:30.345Z,21.50
2018-05-25T23:52:57.800Z,21.50
2018-05-25T23:55:25.261Z,21.40
2018-05-25T23:57:52.744Z,21.40
